Time;durP1;ratioP1;P1;durP2;ratioP2;P2;SDS_P1;SDS_P2;PMS_P1;PMS_P2;Temp;Humidity;BMP_temperature;BMP_pressure;BME280_temperature;BME280_humidity;BME280_pressure;Samples;Min_cycle;Max_cycle;Signal;HPM_P1;HPM_P2
2023/04/29 00:01:39;;;;;;;44.97;33.80;;;;;;;;;;5231394;28;20024;-76
2023/04/29 00:04:10;;;;;;;40.97;31.97;;;;;;;;;;5230665;28;20406;-76
2023/04/29 00:06:41;;;;;;;44.13;33.30;;;;;;;;;;5230755;28;20022;-76
2023/04/29 00:09:13;;;;;;;40.07;30.70;;;;;;;;;;5231375;28;20226;-76
2023/04/29 00:11:46;;;;;;;42.33;32.90;;;;;;;;;;5231931;28;20054;-77
2023/04/29 00:14:17;;;;;;;40.10;32.43;;;;;;;;;;5230067;28;20026;-76
2023/04/29 00:16:48;;;;;;;40.97;30.50;;;;;;;;;;5231299;28;20021;-74
2023/04/29 00:19:19;;;;;;;43.33;32.30;;;;;;;;;;5230061;28;20022;-75
2023/04/29 00:21:51;;;;;;;37.47;30.73;;;;;;;;;;5231399;28;20417;-76
2023/04/29 00:24:22;;;;;;;36.40;29.13;;;;;;;;;;5231309;28;20017;-77
2023/04/29 00:26:54;;;;;;;37.97;30.63;;;;;;;;;;5231915;28;20017;-76
2023/04/29 00:32:35;;;;;;;37.87;29.80;;;;;;;;;;5230068;28;20120;-76
2023/04/29 00:35:06;;;;;;;36.80;29.70;;;;;;;;;;5231807;28;20116;-77
2023/04/29 00:37:37;;;;;;;35.53;29.47;;;;;;;;;;5231385;28;20025;-77
2023/04/29 00:40:09;;;;;;;37.33;29.50;;;;;;;;;;5230976;28;20030;-77
2023/04/29 00:42:40;;;;;;;33.47;29.00;;;;;;;;;;5231079;28;20066;-76
2023/04/29 00:45:11;;;;;;;33.57;27.57;;;;;;;;;;5231182;28;20434;-76
2023/04/29 00:47:43;;;;;;;30.00;26.43;;;;;;;;;;5230955;28;20051;-76
2023/04/29 00:50:14;;;;;;;28.23;25.23;;;;;;;;;;5230827;28;20021;-76
2023/04/29 00:52:47;;;;;;;29.47;24.93;;;;;;;;;;5233717;27;20487;-76
2023/04/29 00:55:18;;;;;;;25.93;23.13;;;;;;;;;;5231773;28;20032;-75
2023/04/29 00:57:51;;;;;;;28.53;24.13;;;;;;;;;;5228967;28;20029;-75
2023/04/29 01:00:23;;;;;;;25.07;22.47;;;;;;;;;;5264609;27;20013;-75
2023/04/29 01:02:55;;;;;;;26.63;23.43;;;;;;;;;;5221838;28;20078;-75
2023/04/29 01:05:26;;;;;;;25.20;22.47;;;;;;;;;;5236915;28;20033;-76
2023/04/29 01:08:16;;;;;;;26.97;21.90;;;;;;;;;;5240280;28;20377;-75
2023/04/29 01:10:51;;;;;;;24.53;21.60;;;;;;;;;;5240406;28;20017;-76
2023/04/29 01:13:30;;;;;;;23.63;21.13;;;;;;;;;;5239339;28;20025;-75
2023/04/29 01:16:05;;;;;;;24.33;21.83;;;;;;;;;;5240539;28;20045;-75
2023/04/29 01:18:40;;;;;;;24.87;22.10;;;;;;;;;;5233932;28;20054;-76
2023/04/29 01:21:11;;;;;;;27.73;23.37;;;;;;;;;;5231106;28;20106;-76
2023/04/29 01:23:44;;;;;;;30.83;24.27;;;;;;;;;;5231155;28;20448;-76
2023/04/29 01:26:15;;;;;;;27.63;23.30;;;;;;;;;;5230770;28;20381;-76
2023/04/29 01:29:05;;;;;;;26.50;23.57;;;;;;;;;;5230857;28;20032;-76
2023/04/29 01:31:40;;;;;;;25.23;22.30;;;;;;;;;;5230838;28;20138;-76
2023/04/29 01:34:15;;;;;;;27.47;24.27;;;;;;;;;;5230094;28;20537;-74
2023/04/29 01:36:47;;;;;;;26.63;23.63;;;;;;;;;;5230631;28;20108;-76
2023/04/29 01:39:45;;;;;;;26.77;23.93;;;;;;;;;;5230271;28;20388;-75
2023/04/29 01:42:16;;;;;;;32.77;27.53;;;;;;;;;;5230204;28;20022;-77
2023/04/29 01:44:50;;;;;;;34.63;29.10;;;;;;;;;;5229138;28;20029;-76
2023/04/29 01:47:21;;;;;;;33.27;27.70;;;;;;;;;;5229659;28;20021;-76
2023/04/29 01:49:52;;;;;;;35.07;27.77;;;;;;;;;;5230349;28;20272;-74
2023/04/29 01:52:23;;;;;;;33.23;26.83;;;;;;;;;;5230022;28;20029;-75
2023/04/29 01:54:55;;;;;;;29.63;25.87;;;;;;;;;;5230565;28;20070;-76
2023/04/29 01:57:26;;;;;;;36.93;30.20;;;;;;;;;;5229932;28;20029;-76
2023/04/29 01:59:57;;;;;;;32.10;26.77;;;;;;;;;;5230322;28;20018;-76
2023/04/29 02:02:29;;;;;;;37.40;29.63;;;;;;;;;;5227576;28;20029;-76
2023/04/29 02:05:00;;;;;;;32.60;26.53;;;;;;;;;;5229972;28;20017;-76
2023/04/29 02:07:31;;;;;;;36.67;28.90;;;;;;;;;;5229819;28;20021;-76
2023/04/29 02:10:02;;;;;;;31.47;27.77;;;;;;;;;;5227837;28;20051;-74
2023/04/29 02:12:33;;;;;;;36.43;28.97;;;;;;;;;;5229966;28;20017;-76
2023/04/29 02:15:05;;;;;;;36.17;28.90;;;;;;;;;;5230311;28;20025;-76
2023/04/29 02:17:37;;;;;;;37.90;31.33;;;;;;;;;;5228489;28;20030;-75
2023/04/29 02:20:09;;;;;;;37.50;30.23;;;;;;;;;;5229525;28;20017;-76
2023/04/29 02:22:40;;;;;;;40.40;32.20;;;;;;;;;;5227767;28;20471;-76
2023/04/29 02:25:11;;;;;;;35.90;30.30;;;;;;;;;;5229906;28;20049;-76
2023/04/29 02:27:43;;;;;;;37.13;31.57;;;;;;;;;;5229920;28;20017;-75
2023/04/29 02:30:14;;;;;;;39.13;29.77;;;;;;;;;;5227922;28;20120;-76
2023/04/29 02:32:45;;;;;;;36.67;29.37;;;;;;;;;;5229014;28;20042;-76
2023/04/29 02:35:16;;;;;;;40.43;32.17;;;;;;;;;;5229326;28;20101;-76
2023/04/29 02:37:48;;;;;;;43.07;31.00;;;;;;;;;;5229381;28;20021;-76
2023/04/29 02:40:19;;;;;;;37.20;30.97;;;;;;;;;;5229656;28;20055;-76
2023/04/29 02:42:50;;;;;;;43.23;33.57;;;;;;;;;;5231470;28;20495;-77
2023/04/29 02:45:22;;;;;;;42.50;33.87;;;;;;;;;;5233009;28;20155;-76
2023/04/29 02:47:53;;;;;;;43.70;33.27;;;;;;;;;;5232411;28;20026;-76
2023/04/29 02:50:25;;;;;;;41.77;32.67;;;;;;;;;;5231056;28;20539;-75
2023/04/29 02:52:56;;;;;;;45.37;33.00;;;;;;;;;;5233249;28;20017;-74
2023/04/29 02:55:27;;;;;;;43.80;34.93;;;;;;;;;;5232209;28;20760;-74
2023/04/29 02:57:59;;;;;;;44.77;33.80;;;;;;;;;;5233059;28;20022;-74
2023/04/29 03:00:30;;;;;;;44.67;36.27;;;;;;;;;;5231828;28;20166;-75
2023/04/29 03:03:01;;;;;;;46.93;34.10;;;;;;;;;;5231888;28;20105;-75
2023/04/29 03:05:34;;;;;;;50.83;36.87;;;;;;;;;;5232914;28;20033;-75
2023/04/29 03:08:05;;;;;;;44.53;35.00;;;;;;;;;;5232298;28;20085;-75
2023/04/29 03:10:36;;;;;;;44.97;33.90;;;;;;;;;;5232697;28;20010;-75
2023/04/29 03:13:07;;;;;;;41.43;33.50;;;;;;;;;;5233042;28;20025;-75
2023/04/29 03:15:38;;;;;;;43.80;33.77;;;;;;;;;;5232234;28;20018;-75
2023/04/29 03:18:10;;;;;;;44.23;34.37;;;;;;;;;;5231613;28;20097;-75
2023/04/29 03:20:41;;;;;;;44.33;35.00;;;;;;;;;;5232888;28;20017;-75
2023/04/29 03:23:13;;;;;;;44.10;34.40;;;;;;;;;;5232239;28;20022;-76
2023/04/29 03:25:45;;;;;;;47.90;37.00;;;;;;;;;;5232565;28;20074;-75
2023/04/29 03:28:16;;;;;;;46.17;36.23;;;;;;;;;;5232249;28;20607;-75
2023/04/29 03:30:47;;;;;;;43.20;32.87;;;;;;;;;;5231321;28;20532;-75
2023/04/29 03:33:19;;;;;;;45.13;33.30;;;;;;;;;;5231120;28;20064;-76
2023/04/29 03:35:50;;;;;;;43.97;32.80;;;;;;;;;;5230983;28;20539;-75
2023/04/29 03:38:21;;;;;;;42.30;30.27;;;;;;;;;;5232005;28;20025;-75
2023/04/29 03:40:52;;;;;;;44.13;32.10;;;;;;;;;;5232220;28;20029;-76
2023/04/29 03:43:24;;;;;;;47.13;31.77;;;;;;;;;;5231717;28;20021;-76
2023/04/29 03:45:55;;;;;;;47.53;33.07;;;;;;;;;;5232428;28;20070;-76
2023/04/29 03:48:26;;;;;;;43.30;32.20;;;;;;;;;;5229339;28;20029;-76
2023/04/29 03:50:58;;;;;;;43.37;32.07;;;;;;;;;;5232227;28;20043;-75
2023/04/29 03:53:29;;;;;;;42.43;30.80;;;;;;;;;;5231929;28;20020;-75
2023/04/29 03:56:00;;;;;;;41.33;30.97;;;;;;;;;;5231793;28;20021;-75
2023/04/29 03:58:33;;;;;;;42.20;30.40;;;;;;;;;;5231982;28;20089;-75
2023/04/29 04:01:04;;;;;;;41.20;31.60;;;;;;;;;;5231011;28;20106;-75
2023/04/29 04:03:35;;;;;;;44.37;30.53;;;;;;;;;;5230649;28;20132;-75
2023/04/29 04:06:06;;;;;;;39.47;29.80;;;;;;;;;;5230118;28;20512;-76
2023/04/29 04:08:39;;;;;;;36.40;27.73;;;;;;;;;;5231561;28;20044;-75
2023/04/29 04:11:13;;;;;;;40.47;27.70;;;;;;;;;;5230889;28;20543;-75
2023/04/29 04:13:45;;;;;;;41.80;29.73;;;;;;;;;;5231494;28;20029;-75
2023/04/29 04:16:16;;;;;;;39.13;26.70;;;;;;;;;;5230956;28;20678;-75
2023/04/29 04:18:47;;;;;;;39.57;28.60;;;;;;;;;;5232135;28;21017;-75
2023/04/29 04:21:18;;;;;;;35.60;27.33;;;;;;;;;;5231227;28;20045;-75
2023/04/29 04:23:50;;;;;;;42.50;28.03;;;;;;;;;;5231805;28;20081;-75
2023/04/29 04:26:21;;;;;;;36.93;28.33;;;;;;;;;;5231863;28;20017;-75
2023/04/29 04:28:53;;;;;;;35.03;26.77;;;;;;;;;;5231385;28;20047;-75
2023/04/29 04:31:24;;;;;;;41.50;27.60;;;;;;;;;;5230235;28;20021;-76
2023/04/29 04:33:55;;;;;;;35.93;28.73;;;;;;;;;;5231265;28;20085;-76
2023/04/29 04:36:27;;;;;;;37.10;27.27;;;;;;;;;;5230173;28;20022;-75
2023/04/29 04:38:58;;;;;;;35.70;26.27;;;;;;;;;;5231728;28;20523;-75
2023/04/29 04:41:32;;;;;;;33.97;25.17;;;;;;;;;;5230837;28;20045;-75
2023/04/29 04:44:04;;;;;;;31.95;25.40;;;;;;;;;;5231518;28;20017;-76
2023/04/29 04:46:35;;;;;;;34.23;26.80;;;;;;;;;;5230125;28;20471;-75
2023/04/29 04:49:06;;;;;;;35.03;25.67;;;;;;;;;;5231150;28;20025;-75
2023/04/29 04:51:38;;;;;;;32.60;25.43;;;;;;;;;;5230730;28;20771;-75
2023/04/29 04:54:09;;;;;;;32.57;24.83;;;;;;;;;;5231226;28;20024;-75
2023/04/29 04:56:40;;;;;;;34.93;25.53;;;;;;;;;;5229653;28;20029;-76
2023/04/29 04:59:11;;;;;;;29.93;25.17;;;;;;;;;;5230814;28;20026;-76
2023/04/29 05:01:43;;;;;;;30.90;23.23;;;;;;;;;;5230008;28;20025;-77
2023/04/29 05:04:15;;;;;;;29.50;23.40;;;;;;;;;;5230177;28;20752;-75
2023/04/29 05:06:46;;;;;;;32.60;25.27;;;;;;;;;;5229848;28;20024;-76
2023/04/29 05:09:17;;;;;;;26.77;23.37;;;;;;;;;;5230993;28;20366;-76
2023/04/29 05:11:48;;;;;;;34.30;23.97;;;;;;;;;;5230997;28;20491;-76
2023/04/29 05:14:19;;;;;;;30.87;23.20;;;;;;;;;;5229095;28;20354;-74
2023/04/29 05:16:51;;;;;;;31.67;24.93;;;;;;;;;;5230381;28;20049;-74
2023/04/29 05:19:23;;;;;;;29.67;23.13;;;;;;;;;;5230514;28;20025;-74
2023/04/29 05:21:55;;;;;;;28.27;22.60;;;;;;;;;;5230591;28;20033;-75
2023/04/29 05:24:26;;;;;;;28.67;23.70;;;;;;;;;;5230679;28;20021;-74
2023/04/29 05:26:57;;;;;;;28.33;22.43;;;;;;;;;;5230608;28;20055;-75
2023/04/29 05:29:29;;;;;;;28.13;23.27;;;;;;;;;;5230304;28;20029;-76
2023/04/29 05:32:00;;;;;;;28.73;23.33;;;;;;;;;;5229997;28;20739;-76
2023/04/29 05:34:31;;;;;;;30.93;23.10;;;;;;;;;;5230475;28;20017;-76
2023/04/29 05:37:02;;;;;;;34.03;22.97;;;;;;;;;;5230459;28;20029;-76
2023/04/29 05:39:39;;;;;;;29.50;23.07;;;;;;;;;;5229253;28;20472;-74
2023/04/29 05:42:11;;;;;;;30.13;22.83;;;;;;;;;;5230277;28;20108;-75
2023/04/29 05:44:42;;;;;;;28.87;22.33;;;;;;;;;;5230487;28;20100;-75
2023/04/29 05:47:13;;;;;;;27.87;23.33;;;;;;;;;;5229535;28;20017;-76
2023/04/29 05:49:45;;;;;;;27.30;20.70;;;;;;;;;;5231113;28;20812;-76
2023/04/29 05:52:16;;;;;;;29.57;22.57;;;;;;;;;;5230875;28;20025;-76
2023/04/29 05:54:47;;;;;;;27.23;21.43;;;;;;;;;;5231167;28;20082;-75
2023/04/29 05:57:18;;;;;;;31.30;22.07;;;;;;;;;;5230991;28;20495;-74
2023/04/29 05:59:50;;;;;;;26.77;23.17;;;;;;;;;;5230860;28;20040;-74
2023/04/29 06:02:22;;;;;;;26.47;21.63;;;;;;;;;;5234322;28;20081;-75
2023/04/29 06:04:53;;;;;;;29.83;21.83;;;;;;;;;;5238005;28;20056;-76
2023/04/29 06:07:25;;;;;;;27.67;21.93;;;;;;;;;;5235790;28;20052;-75
2023/04/29 06:09:57;;;;;;;30.67;21.37;;;;;;;;;;5246079;28;20036;-75
2023/04/29 06:12:28;;;;;;;29.90;22.10;;;;;;;;;;5245963;28;20021;-75
2023/04/29 06:14:59;;;;;;;25.33;21.50;;;;;;;;;;5251462;28;20102;-75
2023/04/29 06:17:31;;;;;;;26.13;22.60;;;;;;;;;;5237766;28;20026;-76
2023/04/29 06:20:02;;;;;;;24.53;21.40;;;;;;;;;;5237116;28;20021;-76
2023/04/29 06:22:33;;;;;;;26.77;22.17;;;;;;;;;;5233431;28;20033;-75
2023/04/29 06:25:05;;;;;;;30.50;21.80;;;;;;;;;;5233409;28;20017;-76
2023/04/29 06:27:36;;;;;;;28.50;22.00;;;;;;;;;;5233444;28;20031;-76
2023/04/29 06:30:07;;;;;;;28.73;22.00;;;;;;;;;;5233148;28;20025;-76
2023/04/29 06:32:38;;;;;;;26.27;20.27;;;;;;;;;;5229516;28;20060;-76
2023/04/29 06:35:10;;;;;;;27.13;20.10;;;;;;;;;;5232391;28;20024;-76
2023/04/29 06:37:41;;;;;;;28.23;22.10;;;;;;;;;;5233168;28;20452;-75
2023/04/29 06:40:12;;;;;;;26.93;20.53;;;;;;;;;;5232741;28;20033;-76
2023/04/29 06:42:44;;;;;;;27.30;21.53;;;;;;;;;;5233128;28;20754;-76
2023/04/29 06:45:15;;;;;;;25.70;21.43;;;;;;;;;;5233259;28;20334;-76
2023/04/29 06:47:46;;;;;;;25.50;20.63;;;;;;;;;;5232110;28;20075;-75
2023/04/29 06:50:17;;;;;;;22.23;18.97;;;;;;;;;;5230652;28;20017;-75
2023/04/29 06:52:50;;;;;;;24.30;20.37;;;;;;;;;;5212532;28;20041;-76
2023/04/29 06:55:21;;;;;;;26.20;20.23;;;;;;;;;;5212539;28;20021;-75
2023/04/29 06:57:52;;;;;;;25.77;20.87;;;;;;;;;;5212756;28;20022;-75
2023/04/29 07:00:23;;;;;;;25.53;21.50;;;;;;;;;;5212004;28;20079;-75
2023/04/29 07:02:55;;;;;;;26.60;20.23;;;;;;;;;;5313576;27;20241;-75
2023/04/29 07:05:26;;;;;;;25.83;21.00;;;;;;;;;;5212155;28;20022;-76
2023/04/29 07:07:57;;;;;;;27.53;19.93;;;;;;;;;;5211769;28;20018;-76
2023/04/29 07:10:29;;;;;;;25.37;19.93;;;;;;;;;;5211778;28;20066;-76
2023/04/29 07:13:00;;;;;;;23.33;18.50;;;;;;;;;;5222333;28;20097;-75
2023/04/29 07:15:35;;;;;;;26.93;19.10;;;;;;;;;;5215071;28;20497;-75
2023/04/29 07:18:07;;;;;;;24.60;20.40;;;;;;;;;;5230412;28;20021;-76
2023/04/29 07:20:38;;;;;;;28.53;21.50;;;;;;;;;;5232150;28;20488;-76
2023/04/29 07:23:10;;;;;;;24.00;19.87;;;;;;;;;;5232970;28;20108;-75
2023/04/29 07:25:41;;;;;;;24.23;19.77;;;;;;;;;;5232376;28;20074;-76
2023/04/29 07:28:12;;;;;;;29.13;20.77;;;;;;;;;;5232251;28;20544;-76
2023/04/29 07:30:44;;;;;;;23.90;20.67;;;;;;;;;;5231904;28;20055;-76
2023/04/29 07:33:15;;;;;;;23.60;18.67;;;;;;;;;;5231915;28;20504;-76
2023/04/29 07:35:47;;;;;;;24.07;19.40;;;;;;;;;;5232689;28;20043;-76
2023/04/29 07:38:20;;;;;;;26.53;19.97;;;;;;;;;;5222642;28;20030;-76
2023/04/29 07:40:51;;;;;;;20.90;18.17;;;;;;;;;;5211170;28;20453;-74
2023/04/29 07:43:22;;;;;;;24.77;19.37;;;;;;;;;;5211558;28;20063;-75
2023/04/29 07:45:54;;;;;;;24.27;19.90;;;;;;;;;;5217663;28;20074;-75
2023/04/29 07:48:25;;;;;;;25.33;19.00;;;;;;;;;;5232256;28;20439;-75
2023/04/29 07:50:56;;;;;;;26.57;20.03;;;;;;;;;;5231989;28;20425;-75
2023/04/29 07:53:27;;;;;;;25.97;20.07;;;;;;;;;;5223137;28;20075;-75
2023/04/29 07:56:03;;;;;;;23.07;18.63;;;;;;;;;;5211409;28;20098;-75
2023/04/29 07:58:35;;;;;;;24.60;20.03;;;;;;;;;;5210705;28;20045;-74
2023/04/29 08:01:10;;;;;;;25.23;19.63;;;;;;;;;;5215129;28;20495;-75
2023/04/29 08:03:41;;;;;;;25.33;18.90;;;;;;;;;;5231226;28;20029;-75
2023/04/29 08:06:13;;;;;;;25.30;20.10;;;;;;;;;;5230728;28;20044;-75
2023/04/29 08:08:44;;;;;;;26.30;19.73;;;;;;;;;;5231893;28;20074;-75
2023/04/29 08:11:17;;;;;;;23.17;18.53;;;;;;;;;;5231980;28;20059;-76
2023/04/29 08:13:48;;;;;;;22.27;17.53;;;;;;;;;;5215285;28;20017;-76
2023/04/29 08:16:20;;;;;;;22.37;18.47;;;;;;;;;;5209768;28;20044;-76
2023/04/29 08:18:52;;;;;;;22.50;17.80;;;;;;;;;;5210384;28;20037;-76
2023/04/29 08:21:23;;;;;;;25.97;18.43;;;;;;;;;;5212054;28;20018;-77
2023/04/29 08:23:54;;;;;;;21.70;18.33;;;;;;;;;;5213050;28;20018;-75
2023/04/29 08:26:26;;;;;;;21.13;16.47;;;;;;;;;;5209883;28;20093;-75
2023/04/29 08:28:57;;;;;;;19.60;17.30;;;;;;;;;;5213591;28;20029;-76
2023/04/29 08:31:28;;;;;;;17.83;15.93;;;;;;;;;;5221092;28;20112;-78
2023/04/29 08:33:59;;;;;;;19.13;16.13;;;;;;;;;;5230695;28;20163;-78
2023/04/29 08:36:31;;;;;;;20.83;15.27;;;;;;;;;;5285544;28;20023;-77
2023/04/29 08:39:02;;;;;;;22.90;15.50;;;;;;;;;;5247653;27;20036;-78
2023/04/29 08:41:35;;;;;;;21.83;15.07;;;;;;;;;;5286136;27;20031;-77
2023/04/29 08:44:06;;;;;;;21.90;14.73;;;;;;;;;;5339055;27;20095;-76
2023/04/29 08:46:38;;;;;;;22.17;15.30;;;;;;;;;;5336973;27;20044;-76
2023/04/29 08:49:10;;;;;;;23.60;15.27;;;;;;;;;;5323695;27;20025;-77
2023/04/29 08:51:41;;;;;;;19.83;14.03;;;;;;;;;;5288040;28;20034;-76
2023/04/29 08:54:12;;;;;;;18.07;14.60;;;;;;;;;;5354614;27;20019;-75
2023/04/29 08:56:44;;;;;;;17.03;14.13;;;;;;;;;;5267155;28;20020;-74
2023/04/29 08:59:16;;;;;;;19.70;14.40;;;;;;;;;;5235043;28;20025;-76
2023/04/29 09:01:50;;;;;;;18.07;13.63;;;;;;;;;;5224646;28;20093;-75
2023/04/29 09:04:42;;;;;;;17.42;13.88;;;;;;;;;;5234406;28;20017;-75
2023/04/29 09:07:14;;;;;;;18.43;14.63;;;;;;;;;;5226398;28;20103;-75
2023/04/29 09:09:46;;;;;;;16.97;14.90;;;;;;;;;;5240858;28;20049;-76
2023/04/29 09:12:18;;;;;;;16.23;12.70;;;;;;;;;;5230007;28;20052;-76
2023/04/29 09:14:49;;;;;;;17.17;12.83;;;;;;;;;;5230243;28;20469;-75
2023/04/29 09:17:36;;;;;;;14.83;12.17;;;;;;;;;;5221039;28;20036;-75
2023/04/29 09:20:28;;;;;;;17.83;12.70;;;;;;;;;;5224986;28;20034;-75
2023/04/29 09:23:00;;;;;;;16.03;13.10;;;;;;;;;;5345479;27;20385;-75
2023/04/29 09:25:32;;;;;;;16.37;12.60;;;;;;;;;;5238369;28;20098;-75
2023/04/29 09:28:13;;;;;;;16.67;13.00;;;;;;;;;;5228826;28;20021;-75
2023/04/29 09:30:45;;;;;;;18.73;12.20;;;;;;;;;;5231560;28;20116;-75
2023/04/29 09:33:17;;;;;;;14.50;11.40;;;;;;;;;;5199989;28;1064260;-75
2023/04/29 09:35:48;;;;;;;18.07;11.27;;;;;;;;;;5238498;28;20040;-74
2023/04/29 09:38:20;;;;;;;12.00;9.90;;;;;;;;;;5237208;28;20017;-75
2023/04/29 09:40:52;;;;;;;13.30;10.80;;;;;;;;;;5237654;28;20017;-75
2023/04/29 09:43:23;;;;;;;13.63;10.07;;;;;;;;;;5227929;28;20028;-75
2023/04/29 09:45:55;;;;;;;10.20;9.20;;;;;;;;;;5231956;28;20679;-75
2023/04/29 09:48:31;;;;;;;12.93;8.23;;;;;;;;;;5225707;28;20116;-75
2023/04/29 09:51:02;;;;;;;9.63;8.57;;;;;;;;;;5236278;28;20052;-75
2023/04/29 09:53:36;;;;;;;10.73;9.00;;;;;;;;;;5233021;28;20046;-74
2023/04/29 09:56:08;;;;;;;12.90;8.83;;;;;;;;;;5231873;28;20029;-73
2023/04/29 09:58:39;;;;;;;11.93;8.73;;;;;;;;;;5227612;28;20673;-73
2023/04/29 10:01:13;;;;;;;15.20;9.53;;;;;;;;;;5225771;28;20014;-74
2023/04/29 10:03:44;;;;;;;10.87;8.20;;;;;;;;;;5232565;28;20554;-74
2023/04/29 10:06:15;;;;;;;9.97;8.17;;;;;;;;;;5228440;28;20101;-74
2023/04/29 10:08:47;;;;;;;10.13;7.93;;;;;;;;;;5230502;28;20761;-74
2023/04/29 10:11:21;;;;;;;9.27;7.73;;;;;;;;;;5234834;28;20029;-73
2023/04/29 10:13:52;;;;;;;11.77;7.68;;;;;;;;;;5225320;28;20033;-72
2023/04/29 10:16:33;;;;;;;9.87;8.07;;;;;;;;;;5232609;28;20017;-73
2023/04/29 10:19:06;;;;;;;10.53;8.03;;;;;;;;;;5229476;28;20057;-73
2023/04/29 10:21:37;;;;;;;9.33;7.67;;;;;;;;;;5219664;28;20732;-73
2023/04/29 10:24:09;;;;;;;8.53;6.30;;;;;;;;;;5236563;28;20021;-72
2023/04/29 10:26:40;;;;;;;9.80;6.97;;;;;;;;;;5226043;28;20046;-73
2023/04/29 10:29:13;;;;;;;9.73;7.03;;;;;;;;;;5225160;28;20017;-73
2023/04/29 10:31:45;;;;;;;12.70;8.20;;;;;;;;;;5232577;28;20051;-74
2023/04/29 10:34:16;;;;;;;9.23;8.23;;;;;;;;;;5228951;28;20306;-74
2023/04/29 10:36:48;;;;;;;11.80;8.77;;;;;;;;;;5228606;28;20018;-74
2023/04/29 10:39:22;;;;;;;12.57;8.50;;;;;;;;;;5232183;28;20017;-73
2023/04/29 10:41:53;;;;;;;11.75;8.70;;;;;;;;;;5229837;28;20017;-74
2023/04/29 10:44:24;;;;;;;8.73;7.30;;;;;;;;;;5230027;28;20423;-74
2023/04/29 10:47:15;;;;;;;8.40;7.23;;;;;;;;;;5227332;28;20025;-73
2023/04/29 10:50:00;;;;;;;10.07;7.37;;;;;;;;;;5231390;28;20369;-73
2023/04/29 10:52:49;;;;;;;10.20;8.27;;;;;;;;;;5233728;28;20025;-73
2023/04/29 10:55:22;;;;;;;9.97;7.33;;;;;;;;;;5331515;27;20078;-74
2023/04/29 10:57:55;;;;;;;9.07;7.83;;;;;;;;;;5233178;28;20464;-74
2023/04/29 11:00:28;;;;;;;14.88;8.65;;;;;;;;;;5220733;28;20028;-73
2023/04/29 11:03:00;;;;;;;9.87;7.63;;;;;;;;;;5237190;28;20036;-74
2023/04/29 11:05:32;;;;;;;12.70;8.90;;;;;;;;;;5239717;28;20017;-72
2023/04/29 11:08:22;;;;;;;9.83;8.27;;;;;;;;;;5232643;28;20055;-73
2023/04/29 11:10:59;;;;;;;11.90;7.63;;;;;;;;;;5233477;28;20025;-73
2023/04/29 11:13:31;;;;;;;10.10;8.00;;;;;;;;;;5233461;28;20025;-73
2023/04/29 11:16:06;;;;;;;9.47;6.50;;;;;;;;;;5227201;27;20082;-73
2023/04/29 11:18:56;;;;;;;15.07;8.70;;;;;;;;;;5235691;28;20511;-72
2023/04/29 11:21:27;;;;;;;13.50;7.20;;;;;;;;;;5229878;28;20368;-72
2023/04/29 11:24:00;;;;;;;9.33;7.73;;;;;;;;;;5236578;28;20096;-72
2023/04/29 11:26:34;;;;;;;9.80;7.47;;;;;;;;;;5236994;28;20059;-73
2023/04/29 11:29:09;;;;;;;10.07;7.70;;;;;;;;;;5238647;28;20029;-73
2023/04/29 11:31:40;;;;;;;12.37;8.13;;;;;;;;;;5234012;28;20056;-73
2023/04/29 11:34:11;;;;;;;11.70;7.80;;;;;;;;;;5231001;28;20017;-73
2023/04/29 11:36:45;;;;;;;10.27;8.33;;;;;;;;;;5244297;28;20032;-72
2023/04/29 11:39:16;;;;;;;13.43;7.70;;;;;;;;;;5245390;28;20021;-73
2023/04/29 11:41:48;;;;;;;11.53;6.93;;;;;;;;;;5234539;28;20066;-73
2023/04/29 11:44:22;;;;;;;13.03;8.03;;;;;;;;;;5244489;28;20077;-73
2023/04/29 11:47:00;;;;;;;7.80;6.20;;;;;;;;;;5233486;28;20113;-73
2023/04/29 11:49:32;;;;;;;8.63;6.70;;;;;;;;;;5234562;28;20112;-72
2023/04/29 11:52:03;;;;;;;8.20;6.90;;;;;;;;;;5245394;28;20120;-72
2023/04/29 11:54:34;;;;;;;9.90;7.17;;;;;;;;;;5234849;28;20020;-72
2023/04/29 11:57:06;;;;;;;8.70;6.83;;;;;;;;;;5236502;28;20025;-73
2023/04/29 11:59:37;;;;;;;10.50;6.87;;;;;;;;;;5241069;28;20021;-72
2023/04/29 12:02:10;;;;;;;9.70;6.80;;;;;;;;;;5238837;28;20490;-73
2023/04/29 12:04:48;;;;;;;8.33;6.50;;;;;;;;;;5329196;27;20123;-73
2023/04/29 12:07:19;;;;;;;11.27;7.40;;;;;;;;;;5244242;28;20483;-73
2023/04/29 12:09:50;;;;;;;10.50;6.60;;;;;;;;;;5235403;28;20017;-73
2023/04/29 12:12:22;;;;;;;13.93;7.83;;;;;;;;;;5244538;28;20069;-73
2023/04/29 12:14:53;;;;;;;12.73;6.77;;;;;;;;;;5236509;28;20021;-73
2023/04/29 12:17:24;;;;;;;9.47;5.90;;;;;;;;;;5234600;28;20400;-73
2023/04/29 12:19:56;;;;;;;8.93;6.63;;;;;;;;;;5228675;28;20033;-73
2023/04/29 12:22:30;;;;;;;7.30;5.80;;;;;;;;;;5233453;28;20465;-73
2023/04/29 12:25:02;;;;;;;8.70;6.23;;;;;;;;;;5232202;28;20021;-73
2023/04/29 12:27:34;;;;;;;10.53;7.43;;;;;;;;;;5233287;28;20051;-73
2023/04/29 12:30:07;;;;;;;9.27;6.77;;;;;;;;;;5236095;28;20541;-73
2023/04/29 12:32:38;;;;;;;7.70;5.17;;;;;;;;;;5226262;27;20061;-73
2023/04/29 12:35:15;;;;;;;6.50;5.80;;;;;;;;;;5233453;28;20021;-73
2023/04/29 12:37:48;;;;;;;9.00;6.07;;;;;;;;;;5244917;27;20013;-73
2023/04/29 12:40:19;;;;;;;6.97;5.63;;;;;;;;;;5240636;28;20032;-73
2023/04/29 12:42:52;;;;;;;8.83;5.63;;;;;;;;;;5233907;28;20018;-73
2023/04/29 12:45:28;;;;;;;9.27;5.37;;;;;;;;;;5232134;28;20040;-73
2023/04/29 12:48:00;;;;;;;7.83;5.37;;;;;;;;;;5229213;28;20408;-74
2023/04/29 12:50:32;;;;;;;9.93;5.93;;;;;;;;;;5236984;28;20032;-74
2023/04/29 12:53:05;;;;;;;9.93;5.70;;;;;;;;;;5233998;28;20167;-74
2023/04/29 12:55:36;;;;;;;8.43;5.90;;;;;;;;;;5232890;28;20029;-74
2023/04/29 12:58:08;;;;;;;7.23;5.97;;;;;;;;;;5242191;28;20058;-73
2023/04/29 13:00:39;;;;;;;6.03;5.43;;;;;;;;;;5234281;28;20053;-73
2023/04/29 13:03:10;;;;;;;6.63;5.10;;;;;;;;;;5234308;28;20090;-73
2023/04/29 13:05:42;;;;;;;8.00;5.17;;;;;;;;;;5235321;28;20021;-73
2023/04/29 13:08:13;;;;;;;5.97;4.77;;;;;;;;;;5236972;27;20567;-74
2023/04/29 13:10:45;;;;;;;7.83;5.00;;;;;;;;;;5236076;28;20053;-74
2023/04/29 13:13:16;;;;;;;8.73;5.57;;;;;;;;;;5239968;28;20025;-74
2023/04/29 13:15:48;;;;;;;9.03;5.77;;;;;;;;;;5237591;28;20021;-74
2023/04/29 13:18:19;;;;;;;7.07;4.77;;;;;;;;;;5230826;28;20030;-73
2023/04/29 13:20:50;;;;;;;6.40;4.97;;;;;;;;;;5235949;28;20044;-73
2023/04/29 13:23:21;;;;;;;8.30;6.10;;;;;;;;;;5233557;28;20552;-73
2023/04/29 13:25:53;;;;;;;7.30;5.13;;;;;;;;;;5231024;28;20525;-73
2023/04/29 13:28:24;;;;;;;6.83;5.47;;;;;;;;;;5235506;28;20114;-73
2023/04/29 13:30:55;;;;;;;7.90;4.87;;;;;;;;;;5233199;28;20032;-72
2023/04/29 13:33:27;;;;;;;6.27;4.63;;;;;;;;;;5230022;27;20053;-74
2023/04/29 13:35:58;;;;;;;10.07;5.23;;;;;;;;;;5225488;28;20030;-73
2023/04/29 13:38:29;;;;;;;6.13;4.83;;;;;;;;;;5227257;28;20589;-74
2023/04/29 13:41:01;;;;;;;6.40;4.63;;;;;;;;;;5233883;28;20036;-74
2023/04/29 13:43:32;;;;;;;7.73;5.07;;;;;;;;;;5232158;28;20017;-74
2023/04/29 13:46:03;;;;;;;8.17;4.97;;;;;;;;;;5230590;28;20029;-73
2023/04/29 13:48:34;;;;;;;7.47;5.17;;;;;;;;;;5231114;28;20100;-72
2023/04/29 13:51:06;;;;;;;7.07;4.87;;;;;;;;;;5231940;28;20058;-73
2023/04/29 13:53:37;;;;;;;6.90;4.60;;;;;;;;;;5229666;28;20122;-73
2023/04/29 13:56:09;;;;;;;6.80;5.20;;;;;;;;;;5231570;28;21184;-73
2023/04/29 13:58:40;;;;;;;6.23;4.53;;;;;;;;;;5231724;28;20032;-73
2023/04/29 14:01:12;;;;;;;7.23;4.90;;;;;;;;;;5234618;28;20457;-74
2023/04/29 14:03:43;;;;;;;6.17;5.20;;;;;;;;;;5229667;28;20071;-74
2023/04/29 14:06:15;;;;;;;7.53;5.00;;;;;;;;;;5230121;28;20020;-74
2023/04/29 14:08:46;;;;;;;6.73;4.53;;;;;;;;;;5229600;28;20033;-74
2023/04/29 14:11:18;;;;;;;8.63;5.63;;;;;;;;;;5231740;28;20020;-74
2023/04/29 14:13:49;;;;;;;7.27;4.67;;;;;;;;;;5229227;27;20079;-74
2023/04/29 14:16:20;;;;;;;6.40;4.73;;;;;;;;;;5221517;27;20022;-74
2023/04/29 14:18:52;;;;;;;8.10;4.60;;;;;;;;;;5237205;27;20037;-74
2023/04/29 14:21:23;;;;;;;8.07;4.60;;;;;;;;;;5226920;28;20014;-74
2023/04/29 14:23:55;;;;;;;5.80;5.13;;;;;;;;;;5228856;28;20029;-73
2023/04/29 14:26:27;;;;;;;6.70;5.07;;;;;;;;;;5231848;27;20045;-73
2023/04/29 14:28:59;;;;;;;6.73;4.60;;;;;;;;;;5229883;28;20048;-73
2023/04/29 14:31:34;;;;;;;6.67;5.23;;;;;;;;;;5229323;28;20048;-73
2023/04/29 14:34:05;;;;;;;9.87;4.60;;;;;;;;;;5222352;28;20041;-73
2023/04/29 14:36:36;;;;;;;7.03;4.43;;;;;;;;;;5233711;28;20017;-73
2023/04/29 14:39:08;;;;;;;6.43;4.77;;;;;;;;;;5232687;28;20066;-74
2023/04/29 14:41:39;;;;;;;6.93;4.80;;;;;;;;;;5238124;27;20047;-73
2023/04/29 14:44:10;;;;;;;6.50;4.20;;;;;;;;;;5239797;28;20013;-73
2023/04/29 14:46:41;;;;;;;7.27;3.60;;;;;;;;;;5234441;28;20018;-73
2023/04/29 14:49:13;;;;;;;8.20;4.03;;;;;;;;;;5237566;28;20070;-74
2023/04/29 14:51:44;;;;;;;7.33;4.00;;;;;;;;;;5238973;28;20051;-74
2023/04/29 14:54:15;;;;;;;7.30;4.00;;;;;;;;;;5231294;28;20037;-74
2023/04/29 14:56:47;;;;;;;6.27;4.30;;;;;;;;;;5236249;28;20460;-74